sensor_id;sensor_type;location;lat;lon;timestamp;temperature;humidity
4002;DHT22;2015;48.670;9.060;2022-12-18T00:02:30;-9.00;99.90
4002;DHT22;2015;48.670;9.060;2022-12-18T00:05:02;-9.00;99.90
4002;DHT22;2015;48.670;9.060;2022-12-18T00:07:35;-8.90;99.90
4002;DHT22;2015;48.670;9.060;2022-12-18T00:10:07;-8.90;99.90
4002;DHT22;2015;48.670;9.060;2022-12-18T00:12:39;-8.80;99.90
4002;DHT22;2015;48.670;9.060;2022-12-18T00:15:11;-8.70;99.90
4002;DHT22;2015;48.670;9.060;2022-12-18T00:17:43;-8.70;99.90
4002;DHT22;2015;48.670;9.060;2022-12-18T00:20:14;-8.60;99.90
4002;DHT22;2015;48.670;9.060;2022-12-18T00:22:46;-8.70;99.90
4002;DHT22;2015;48.670;9.060;2022-12-18T00:25:18;-8.70;99.90
4002;DHT22;2015;48.670;9.060;2022-12-18T00:27:50;-8.80;99.90
4002;DHT22;2015;48.670;9.060;2022-12-18T00:30:22;-8.90;99.90
4002;DHT22;2015;48.670;9.060;2022-12-18T00:32:53;-8.90;99.90
4002;DHT22;2015;48.670;9.060;2022-12-18T00:35:25;-8.90;99.90
4002;DHT22;2015;48.670;9.060;2022-12-18T00:37:57;-8.80;99.90
4002;DHT22;2015;48.670;9.060;2022-12-18T00:40:28;-8.70;99.90
4002;DHT22;2015;48.670;9.060;2022-12-18T00:43:00;-8.60;99.90
4002;DHT22;2015;48.670;9.060;2022-12-18T00:45:32;-8.50;99.90
4002;DHT22;2015;48.670;9.060;2022-12-18T00:48:04;-8.40;99.90
4002;DHT22;2015;48.670;9.060;2022-12-18T00:50:36;-8.40;99.90
4002;DHT22;2015;48.670;9.060;2022-12-18T00:53:07;-8.40;99.90
4002;DHT22;2015;48.670;9.060;2022-12-18T00:55:40;-8.40;99.90
4002;DHT22;2015;48.670;9.060;2022-12-18T00:58:16;-8.50;99.90
4002;DHT22;2015;48.670;9.060;2022-12-18T01:00:49;-8.70;99.90
4002;DHT22;2015;48.670;9.060;2022-12-18T01:03:21;-8.80;99.90
4002;DHT22;2015;48.670;9.060;2022-12-18T01:05:53;-8.80;99.90
4002;DHT22;2015;48.670;9.060;2022-12-18T01:08:25;-8.90;99.90
4002;DHT22;2015;48.670;9.060;2022-12-18T01:10:56;-9.00;99.90
4002;DHT22;2015;48.670;9.060;2022-12-18T01:13:28;-9.00;99.90
4002;DHT22;2015;48.670;9.060;2022-12-18T01:16:00;-9.00;99.90
4002;DHT22;2015;48.670;9.060;2022-12-18T01:18:32;-9.00;99.90
4002;DHT22;2015;48.670;9.060;2022-12-18T01:21:08;-9.10;99.90
4002;DHT22;2015;48.670;9.060;2022-12-18T01:23:41;-9.00;99.90
4002;DHT22;2015;48.670;9.060;2022-12-18T01:26:15;-8.90;99.90
4002;DHT22;2015;48.670;9.060;2022-12-18T01:28:47;-8.80;99.90
4002;DHT22;2015;48.670;9.060;2022-12-18T01:31:25;-8.60;99.90
4002;DHT22;2015;48.670;9.060;2022-12-18T01:34:00;-8.70;99.90
4002;DHT22;2015;48.670;9.060;2022-12-18T01:36:35;-8.80;99.90
4002;DHT22;2015;48.670;9.060;2022-12-18T01:39:11;-8.90;99.90
4002;DHT22;2015;48.670;9.060;2022-12-18T01:41:43;-9.00;99.90
4002;DHT22;2015;48.670;9.060;2022-12-18T01:47:49;-9.00;99.90
4002;DHT22;2015;48.670;9.060;2022-12-18T01:50:36;-9.00;99.90
4002;DHT22;2015;48.670;9.060;2022-12-18T01:53:14;-9.00;99.90
4002;DHT22;2015;48.670;9.060;2022-12-18T01:55:50;-9.00;99.90
4002;DHT22;2015;48.670;9.060;2022-12-18T01:59:13;-9.00;99.90
4002;DHT22;2015;48.670;9.060;2022-12-18T02:01:21;-8.90;99.90
4002;DHT22;2015;48.670;9.060;2022-12-18T02:03:54;-8.80;99.90
4002;DHT22;2015;48.670;9.060;2022-12-18T02:06:34;-8.70;99.90
4002;DHT22;2015;48.670;9.060;2022-12-18T02:09:16;-8.70;99.90
4002;DHT22;2015;48.670;9.060;2022-12-18T02:14:41;-8.60;99.90
4002;DHT22;2015;48.670;9.060;2022-12-18T02:17:17;-8.60;99.90
4002;DHT22;2015;48.670;9.060;2022-12-18T02:28:59;-8.60;99.90
4002;DHT22;2015;48.670;9.060;2022-12-18T02:31:36;-8.60;99.90
4002;DHT22;2015;48.670;9.060;2022-12-18T02:34:11;-8.60;99.90
4002;DHT22;2015;48.670;9.060;2022-12-18T02:36:44;-8.60;99.90
4002;DHT22;2015;48.670;9.060;2022-12-18T02:39:19;-8.60;99.90
4002;DHT22;2015;48.670;9.060;2022-12-18T02:41:52;-8.60;99.90
4002;DHT22;2015;48.670;9.060;2022-12-18T02:44:24;-8.60;99.90
4002;DHT22;2015;48.670;9.060;2022-12-18T02:46:56;-8.60;99.90
4002;DHT22;2015;48.670;9.060;2022-12-18T02:49:35;-8.50;99.90
4002;DHT22;2015;48.670;9.060;2022-12-18T02:57:45;-8.50;99.90
4002;DHT22;2015;48.670;9.060;2022-12-18T03:00:29;-8.50;99.90
4002;DHT22;2015;48.670;9.060;2022-12-18T03:03:18;-8.50;99.90
4002;DHT22;2015;48.670;9.060;2022-12-18T03:06:04;-8.30;99.90
4002;DHT22;2015;48.670;9.060;2022-12-18T03:08:40;-8.20;99.90
4002;DHT22;2015;48.670;9.060;2022-12-18T03:11:14;-8.20;99.90
4002;DHT22;2015;48.670;9.060;2022-12-18T03:13:52;-8.10;99.90
4002;DHT22;2015;48.670;9.060;2022-12-18T03:16:28;-8.00;99.90
4002;DHT22;2015;48.670;9.060;2022-12-18T03:19:06;-8.00;99.90
4002;DHT22;2015;48.670;9.060;2022-12-18T03:21:55;-8.10;99.90
4002;DHT22;2015;48.670;9.060;2022-12-18T03:24:29;-8.10;99.90
4002;DHT22;2015;48.670;9.060;2022-12-18T03:27:03;-8.10;99.90
4002;DHT22;2015;48.670;9.060;2022-12-18T03:29:44;-8.20;99.90
4002;DHT22;2015;48.670;9.060;2022-12-18T03:32:25;-8.30;99.90
4002;DHT22;2015;48.670;9.060;2022-12-18T03:35:03;-8.40;99.90
4002;DHT22;2015;48.670;9.060;2022-12-18T03:37:36;-8.40;99.90
4002;DHT22;2015;48.670;9.060;2022-12-18T03:40:08;-8.50;99.90
4002;DHT22;2015;48.670;9.060;2022-12-18T03:42:51;-8.60;99.90
4002;DHT22;2015;48.670;9.060;2022-12-18T03:45:33;-8.60;99.90
4002;DHT22;2015;48.670;9.060;2022-12-18T03:51:02;-8.40;99.90
4002;DHT22;2015;48.670;9.060;2022-12-18T03:53:47;-8.30;99.90
4002;DHT22;2015;48.670;9.060;2022-12-18T03:56:22;-8.10;99.90
4002;DHT22;2015;48.670;9.060;2022-12-18T03:58:56;-8.00;99.90
4002;DHT22;2015;48.670;9.060;2022-12-18T04:01:33;-8.00;99.90
4002;DHT22;2015;48.670;9.060;2022-12-18T04:04:06;-8.10;99.90
4002;DHT22;2015;48.670;9.060;2022-12-18T04:06:40;-8.30;99.90
4002;DHT22;2015;48.670;9.060;2022-12-18T04:09:13;-8.50;99.90
4002;DHT22;2015;48.670;9.060;2022-12-18T04:11:46;-8.70;99.90
4002;DHT22;2015;48.670;9.060;2022-12-18T04:14:18;-8.70;99.90
4002;DHT22;2015;48.670;9.060;2022-12-18T04:16:50;-8.70;99.90
4002;DHT22;2015;48.670;9.060;2022-12-18T04:19:22;-8.70;99.90
4002;DHT22;2015;48.670;9.060;2022-12-18T04:21:54;-8.80;99.90
4002;DHT22;2015;48.670;9.060;2022-12-18T04:24:25;-8.80;99.90
4002;DHT22;2015;48.670;9.060;2022-12-18T04:26:57;-8.90;99.90
4002;DHT22;2015;48.670;9.060;2022-12-18T04:29:29;-8.90;99.90
4002;DHT22;2015;48.670;9.060;2022-12-18T04:32:01;-8.90;99.90
4002;DHT22;2015;48.670;9.060;2022-12-18T04:34:33;-8.90;99.90
4002;DHT22;2015;48.670;9.060;2022-12-18T04:37:05;-8.90;99.90
4002;DHT22;2015;48.670;9.060;2022-12-18T04:39:36;-8.80;99.90
4002;DHT22;2015;48.670;9.060;2022-12-18T04:42:08;-8.80;99.90
4002;DHT22;2015;48.670;9.060;2022-12-18T04:44:40;-8.80;99.90
4002;DHT22;2015;48.670;9.060;2022-12-18T04:47:12;-8.80;99.90
4002;DHT22;2015;48.670;9.060;2022-12-18T04:49:43;-8.90;99.90
4002;DHT22;2015;48.670;9.060;2022-12-18T04:52:15;-9.00;99.90
4002;DHT22;2015;48.670;9.060;2022-12-18T04:54:47;-9.00;99.90
4002;DHT22;2015;48.670;9.060;2022-12-18T04:57:19;-9.00;99.90
4002;DHT22;2015;48.670;9.060;2022-12-18T04:59:50;-9.00;99.90
4002;DHT22;2015;48.670;9.060;2022-12-18T05:02:22;-9.10;99.90
4002;DHT22;2015;48.670;9.060;2022-12-18T05:04:54;-9.10;99.90
4002;DHT22;2015;48.670;9.060;2022-12-18T05:07:26;-9.10;99.90
4002;DHT22;2015;48.670;9.060;2022-12-18T05:09:57;-9.10;99.90
4002;DHT22;2015;48.670;9.060;2022-12-18T05:12:30;-9.20;99.90
4002;DHT22;2015;48.670;9.060;2022-12-18T05:15:03;-9.20;99.90
4002;DHT22;2015;48.670;9.060;2022-12-18T05:17:34;-9.10;99.90
4002;DHT22;2015;48.670;9.060;2022-12-18T05:20:06;-9.10;99.90
4002;DHT22;2015;48.670;9.060;2022-12-18T05:22:38;-9.10;99.90
4002;DHT22;2015;48.670;9.060;2022-12-18T05:25:10;-9.20;99.90
4002;DHT22;2015;48.670;9.060;2022-12-18T05:27:42;-9.20;99.90
4002;DHT22;2015;48.670;9.060;2022-12-18T05:30:14;-9.20;99.90
4002;DHT22;2015;48.670;9.060;2022-12-18T05:32:46;-9.20;99.90
4002;DHT22;2015;48.670;9.060;2022-12-18T05:35:18;-9.10;99.90
4002;DHT22;2015;48.670;9.060;2022-12-18T05:37:50;-9.10;99.90
4002;DHT22;2015;48.670;9.060;2022-12-18T05:40:21;-9.20;99.90
4002;DHT22;2015;48.670;9.060;2022-12-18T05:42:53;-9.30;99.90
4002;DHT22;2015;48.670;9.060;2022-12-18T05:45:25;-9.40;99.90
4002;DHT22;2015;48.670;9.060;2022-12-18T05:47:57;-9.50;99.90
4002;DHT22;2015;48.670;9.060;2022-12-18T05:50:28;-9.50;99.90
4002;DHT22;2015;48.670;9.060;2022-12-18T05:53:00;-9.50;99.90
4002;DHT22;2015;48.670;9.060;2022-12-18T05:55:36;-9.40;99.90
4002;DHT22;2015;48.670;9.060;2022-12-18T05:58:09;-9.50;99.90
4002;DHT22;2015;48.670;9.060;2022-12-18T06:00:44;-9.50;99.90
4002;DHT22;2015;48.670;9.060;2022-12-18T06:03:16;-9.50;99.90
4002;DHT22;2015;48.670;9.060;2022-12-18T06:05:48;-9.50;99.90
4002;DHT22;2015;48.670;9.060;2022-12-18T06:08:20;-9.40;99.90
4002;DHT22;2015;48.670;9.060;2022-12-18T06:10:52;-9.50;99.90
4002;DHT22;2015;48.670;9.060;2022-12-18T06:13:24;-9.50;99.90
4002;DHT22;2015;48.670;9.060;2022-12-18T06:15:55;-9.60;99.90
4002;DHT22;2015;48.670;9.060;2022-12-18T06:18:27;-9.60;99.90
4002;DHT22;2015;48.670;9.060;2022-12-18T06:20:59;-9.60;99.90
4002;DHT22;2015;48.670;9.060;2022-12-18T06:23:31;-9.60;99.90
4002;DHT22;2015;48.670;9.060;2022-12-18T06:26:05;-9.60;99.90
4002;DHT22;2015;48.670;9.060;2022-12-18T06:28:37;-9.60;99.90
4002;DHT22;2015;48.670;9.060;2022-12-18T06:31:09;-9.60;99.90
4002;DHT22;2015;48.670;9.060;2022-12-18T06:33:41;-9.60;99.90
4002;DHT22;2015;48.670;9.060;2022-12-18T06:36:14;-9.60;99.90
4002;DHT22;2015;48.670;9.060;2022-12-18T06:38:46;-9.60;99.90
4002;DHT22;2015;48.670;9.060;2022-12-18T06:41:20;-9.50;99.90
4002;DHT22;2015;48.670;9.060;2022-12-18T06:43:52;-9.60;99.90
4002;DHT22;2015;48.670;9.060;2022-12-18T06:46:30;-9.50;99.90
4002;DHT22;2015;48.670;9.060;2022-12-18T06:49:01;-9.50;99.90
4002;DHT22;2015;48.670;9.060;2022-12-18T06:51:33;-9.50;99.90
4002;DHT22;2015;48.670;9.060;2022-12-18T06:54:05;-9.50;99.90
4002;DHT22;2015;48.670;9.060;2022-12-18T06:56:37;-9.50;99.90
4002;DHT22;2015;48.670;9.060;2022-12-18T06:59:08;-9.40;99.90
4002;DHT22;2015;48.670;9.060;2022-12-18T07:01:40;-9.50;99.90
4002;DHT22;2015;48.670;9.060;2022-12-18T07:04:12;-9.50;99.90
4002;DHT22;2015;48.670;9.060;2022-12-18T07:06:44;-9.50;99.90
4002;DHT22;2015;48.670;9.060;2022-12-18T07:09:16;-9.50;99.90
4002;DHT22;2015;48.670;9.060;2022-12-18T07:11:47;-9.60;99.90
4002;DHT22;2015;48.670;9.060;2022-12-18T07:14:19;-9.50;99.90
4002;DHT22;2015;48.670;9.060;2022-12-18T07:16:51;-9.50;99.90
4002;DHT22;2015;48.670;9.060;2022-12-18T07:19:23;-9.40;99.90
4002;DHT22;2015;48.670;9.060;2022-12-18T07:21:55;-9.40;99.90
4002;DHT22;2015;48.670;9.060;2022-12-18T07:24:26;-9.40;99.90
4002;DHT22;2015;48.670;9.060;2022-12-18T07:26:58;-9.30;99.90
4002;DHT22;2015;48.670;9.060;2022-12-18T07:29:30;-9.30;99.90
4002;DHT22;2015;48.670;9.060;2022-12-18T07:32:02;-9.30;99.90
4002;DHT22;2015;48.670;9.060;2022-12-18T07:34:34;-9.20;99.90
4002;DHT22;2015;48.670;9.060;2022-12-18T07:37:07;-9.30;99.90
4002;DHT22;2015;48.670;9.060;2022-12-18T07:39:38;-9.20;99.90
4002;DHT22;2015;48.670;9.060;2022-12-18T07:42:10;-9.30;99.90
4002;DHT22;2015;48.670;9.060;2022-12-18T07:45:01;-9.30;99.90
4002;DHT22;2015;48.670;9.060;2022-12-18T07:47:36;-9.20;99.90
4002;DHT22;2015;48.670;9.060;2022-12-18T07:50:08;-9.20;99.90
4002;DHT22;2015;48.670;9.060;2022-12-18T07:52:40;-9.20;99.90
4002;DHT22;2015;48.670;9.060;2022-12-18T07:55:12;-9.20;99.90
4002;DHT22;2015;48.670;9.060;2022-12-18T07:57:43;-9.20;99.90
4002;DHT22;2015;48.670;9.060;2022-12-18T08:00:28;-9.20;99.90
4002;DHT22;2015;48.670;9.060;2022-12-18T08:03:00;-9.10;99.90
4002;DHT22;2015;48.670;9.060;2022-12-18T08:05:32;-9.20;99.90
4002;DHT22;2015;48.670;9.060;2022-12-18T08:08:04;-9.10;99.90
4002;DHT22;2015;48.670;9.060;2022-12-18T08:10:37;-9.00;99.90
4002;DHT22;2015;48.670;9.060;2022-12-18T08:13:08;-9.00;99.90
4002;DHT22;2015;48.670;9.060;2022-12-18T08:15:40;-9.00;99.90
4002;DHT22;2015;48.670;9.060;2022-12-18T08:18:12;-9.00;99.90
4002;DHT22;2015;48.670;9.060;2022-12-18T08:20:45;-8.90;99.90
4002;DHT22;2015;48.670;9.060;2022-12-18T08:23:16;-8.80;99.90
4002;DHT22;2015;48.670;9.060;2022-12-18T08:25:48;-8.70;99.90
4002;DHT22;2015;48.670;9.060;2022-12-18T08:28:21;-8.60;99.90
4002;DHT22;2015;48.670;9.060;2022-12-18T08:30:53;-8.50;99.90
4002;DHT22;2015;48.670;9.060;2022-12-18T08:33:25;-8.40;99.90
4002;DHT22;2015;48.670;9.060;2022-12-18T08:36:01;-8.30;99.90
4002;DHT22;2015;48.670;9.060;2022-12-18T08:38:33;-8.20;99.90
4002;DHT22;2015;48.670;9.060;2022-12-18T08:41:07;-8.10;99.90
4002;DHT22;2015;48.670;9.060;2022-12-18T08:43:40;-8.10;99.90
4002;DHT22;2015;48.670;9.060;2022-12-18T08:46:36;-7.90;99.90
4002;DHT22;2015;48.670;9.060;2022-12-18T08:49:09;-7.60;99.90
4002;DHT22;2015;48.670;9.060;2022-12-18T08:51:41;-7.50;99.90
4002;DHT22;2015;48.670;9.060;2022-12-18T08:54:13;-7.30;99.90
4002;DHT22;2015;48.670;9.060;2022-12-18T08:56:45;-7.10;99.90
4002;DHT22;2015;48.670;9.060;2022-12-18T08:59:18;-7.10;99.90
4002;DHT22;2015;48.670;9.060;2022-12-18T09:01:54;-7.00;99.90
4002;DHT22;2015;48.670;9.060;2022-12-18T09:04:26;-6.90;99.90
4002;DHT22;2015;48.670;9.060;2022-12-18T09:06:58;-6.80;99.90
4002;DHT22;2015;48.670;9.060;2022-12-18T09:09:30;-6.60;99.90
4002;DHT22;2015;48.670;9.060;2022-12-18T09:12:02;-6.30;99.90
4002;DHT22;2015;48.670;9.060;2022-12-18T09:14:34;-5.80;99.90
4002;DHT22;2015;48.670;9.060;2022-12-18T09:17:05;-4.60;99.90
4002;DHT22;2015;48.670;9.060;2022-12-18T09:19:37;-3.00;99.90
4002;DHT22;2015;48.670;9.060;2022-12-18T09:24:41;-0.70;99.90
4002;DHT22;2015;48.670;9.060;2022-12-18T09:27:13;0.40;99.90
4002;DHT22;2015;48.670;9.060;2022-12-18T09:29:45;1.10;99.90
4002;DHT22;2015;48.670;9.060;2022-12-18T09:32:16;1.40;99.90
4002;DHT22;2015;48.670;9.060;2022-12-18T09:34:53;1.80;99.90
4002;DHT22;2015;48.670;9.060;2022-12-18T09:37:24;2.30;99.90
4002;DHT22;2015;48.670;9.060;2022-12-18T09:39:56;2.60;99.90
4002;DHT22;2015;48.670;9.060;2022-12-18T09:42:28;3.10;99.90
4002;DHT22;2015;48.670;9.060;2022-12-18T09:45:00;3.40;99.90
4002;DHT22;2015;48.670;9.060;2022-12-18T09:47:37;3.70;99.90
4002;DHT22;2015;48.670;9.060;2022-12-18T09:50:26;3.30;99.90
4002;DHT22;2015;48.670;9.060;2022-12-18T09:53:07;4.00;99.90
4002;DHT22;2015;48.670;9.060;2022-12-18T09:55:45;3.90;99.90
4002;DHT22;2015;48.670;9.060;2022-12-18T09:58:35;3.50;99.90
4002;DHT22;2015;48.670;9.060;2022-12-18T10:01:13;2.30;99.90
4002;DHT22;2015;48.670;9.060;2022-12-18T10:03:46;1.60;99.90
4002;DHT22;2015;48.670;9.060;2022-12-18T10:12:11;-0.80;99.90
4002;DHT22;2015;48.670;9.060;2022-12-18T10:15:19;-1.50;99.90
4002;DHT22;2015;48.670;9.060;2022-12-18T10:18:29;-2.00;99.90
4002;DHT22;2015;48.670;9.060;2022-12-18T10:21:11;-2.30;99.90
4002;DHT22;2015;48.670;9.060;2022-12-18T10:24:33;-2.50;99.90
4002;DHT22;2015;48.670;9.060;2022-12-18T10:27:25;-2.50;99.90
4002;DHT22;2015;48.670;9.060;2022-12-18T10:29:58;-2.40;99.90
4002;DHT22;2015;48.670;9.060;2022-12-18T10:32:30;-2.50;99.90
4002;DHT22;2015;48.670;9.060;2022-12-18T10:35:02;-2.60;99.90
4002;DHT22;2015;48.670;9.060;2022-12-18T10:37:34;-2.70;99.90
4002;DHT22;2015;48.670;9.060;2022-12-18T10:40:13;-2.70;99.90
4002;DHT22;2015;48.670;9.060;2022-12-18T10:43:09;-2.60;99.90
4002;DHT22;2015;48.670;9.060;2022-12-18T10:45:42;-2.40;99.90
4002;DHT22;2015;48.670;9.060;2022-12-18T10:48:30;-2.30;99.90
4002;DHT22;2015;48.670;9.060;2022-12-18T10:51:02;-2.30;99.90
4002;DHT22;2015;48.670;9.060;2022-12-18T10:53:52;-2.30;99.90
4002;DHT22;2015;48.670;9.060;2022-12-18T10:56:27;-2.10;99.90
4002;DHT22;2015;48.670;9.060;2022-12-18T10:59:06;-1.90;99.90
4002;DHT22;2015;48.670;9.060;2022-12-18T11:01:51;-1.60;99.90
4002;DHT22;2015;48.670;9.060;2022-12-18T11:04:26;-1.50;99.90
4002;DHT22;2015;48.670;9.060;2022-12-18T11:07:07;-1.30;99.90
4002;DHT22;2015;48.670;9.060;2022-12-18T11:09:40;-0.90;99.90
4002;DHT22;2015;48.670;9.060;2022-12-18T11:12:18;0.00;99.90
4002;DHT22;2015;48.670;9.060;2022-12-18T11:14:54;0.70;99.90
4002;DHT22;2015;48.670;9.060;2022-12-18T11:17:30;1.30;99.90
4002;DHT22;2015;48.670;9.060;2022-12-18T11:20:05;1.70;99.90
4002;DHT22;2015;48.670;9.060;2022-12-18T11:22:39;1.30;99.90
4002;DHT22;2015;48.670;9.060;2022-12-18T11:36:54;-1.00;99.90
4002;DHT22;2015;48.670;9.060;2022-12-18T11:39:40;-1.30;99.90
4002;DHT22;2015;48.670;9.060;2022-12-18T11:42:25;-1.50;99.90
4002;DHT22;2015;48.670;9.060;2022-12-18T11:45:18;-1.60;99.90
4002;DHT22;2015;48.670;9.060;2022-12-18T11:48:12;-1.70;99.90
4002;DHT22;2015;48.670;9.060;2022-12-18T11:50:50;-1.70;99.90
4002;DHT22;2015;48.670;9.060;2022-12-18T11:53:25;-1.70;99.90
4002;DHT22;2015;48.670;9.060;2022-12-18T11:56:25;-1.90;99.90
4002;DHT22;2015;48.670;9.060;2022-12-18T12:01:42;-2.00;99.90
4002;DHT22;2015;48.670;9.060;2022-12-18T12:04:40;-2.00;99.90
4002;DHT22;2015;48.670;9.060;2022-12-18T12:15:33;-1.70;99.90
4002;DHT22;2015;48.670;9.060;2022-12-18T12:18:40;-1.70;99.90
4002;DHT22;2015;48.670;9.060;2022-12-18T12:21:40;-1.70;99.90
4002;DHT22;2015;48.670;9.060;2022-12-18T12:25:18;-1.70;99.90
4002;DHT22;2015;48.670;9.060;2022-12-18T12:27:43;-1.70;99.90
4002;DHT22;2015;48.670;9.060;2022-12-18T12:30:26;-1.70;99.90
4002;DHT22;2015;48.670;9.060;2022-12-18T12:33:16;-1.70;99.90
4002;DHT22;2015;48.670;9.060;2022-12-18T12:38:42;-1.60;99.90
4002;DHT22;2015;48.670;9.060;2022-12-18T12:41:26;-1.60;99.90
4002;DHT22;2015;48.670;9.060;2022-12-18T12:44:29;-1.50;99.90
4002;DHT22;2015;48.670;9.060;2022-12-18T12:47:16;-1.50;99.90
4002;DHT22;2015;48.670;9.060;2022-12-18T12:49:50;-1.40;99.90
4002;DHT22;2015;48.670;9.060;2022-12-18T12:52:33;-1.40;99.90
4002;DHT22;2015;48.670;9.060;2022-12-18T12:55:17;-1.40;99.90
4002;DHT22;2015;48.670;9.060;2022-12-18T13:00:39;-1.50;99.90
4002;DHT22;2015;48.670;9.060;2022-12-18T13:06:29;-1.50;99.90
4002;DHT22;2015;48.670;9.060;2022-12-18T13:09:05;-1.50;99.90
4002;DHT22;2015;48.670;9.060;2022-12-18T13:11:47;-1.50;99.90
4002;DHT22;2015;48.670;9.060;2022-12-18T13:14:40;-1.50;99.90
4002;DHT22;2015;48.670;9.060;2022-12-18T13:17:27;-1.50;99.90
4002;DHT22;2015;48.670;9.060;2022-12-18T13:20:12;-1.50;99.90
4002;DHT22;2015;48.670;9.060;2022-12-18T13:22:48;-1.50;99.90
4002;DHT22;2015;48.670;9.060;2022-12-18T13:34:24;-1.60;99.90
4002;DHT22;2015;48.670;9.060;2022-12-18T13:41:14;-1.50;99.90
4002;DHT22;2015;48.670;9.060;2022-12-18T13:43:26;-1.50;99.90
4002;DHT22;2015;48.670;9.060;2022-12-18T13:46:46;-1.50;99.90
4002;DHT22;2015;48.670;9.060;2022-12-18T13:52:28;-1.60;99.90
4002;DHT22;2015;48.670;9.060;2022-12-18T13:55:14;-1.60;99.90
4002;DHT22;2015;48.670;9.060;2022-12-18T13:57:47;-1.60;99.90
4002;DHT22;2015;48.670;9.060;2022-12-18T14:00:26;-1.60;99.90
4002;DHT22;2015;48.670;9.060;2022-12-18T14:02:59;-1.60;99.90
4002;DHT22;2015;48.670;9.060;2022-12-18T14:05:34;-1.70;99.90
4002;DHT22;2015;48.670;9.060;2022-12-18T14:08:11;-1.70;99.90
4002;DHT22;2015;48.670;9.060;2022-12-18T14:10:48;-1.80;99.90
4002;DHT22;2015;48.670;9.060;2022-12-18T14:13:28;-1.80;99.90
4002;DHT22;2015;48.670;9.060;2022-12-18T14:16:01;-1.80;99.90
4002;DHT22;2015;48.670;9.060;2022-12-18T14:18:55;-1.80;99.90
4002;DHT22;2015;48.670;9.060;2022-12-18T14:21:47;-1.80;99.90
4002;DHT22;2015;48.670;9.060;2022-12-18T14:24:21;-1.80;99.90
4002;DHT22;2015;48.670;9.060;2022-12-18T14:26:52;-1.90;99.90
4002;DHT22;2015;48.670;9.060;2022-12-18T14:29:27;-2.00;99.90
4002;DHT22;2015;48.670;9.060;2022-12-18T14:32:17;-2.10;99.90
4002;DHT22;2015;48.670;9.060;2022-12-18T14:34:53;-2.10;99.90
4002;DHT22;2015;48.670;9.060;2022-12-18T14:37:27;-2.20;99.90
4002;DHT22;2015;48.670;9.060;2022-12-18T14:40:01;-2.20;99.90
4002;DHT22;2015;48.670;9.060;2022-12-18T14:42:42;-2.20;99.90
4002;DHT22;2015;48.670;9.060;2022-12-18T14:45:35;-2.20;99.90
4002;DHT22;2015;48.670;9.060;2022-12-18T14:48:22;-2.20;99.90
4002;DHT22;2015;48.670;9.060;2022-12-18T14:51:20;-2.20;99.90
4002;DHT22;2015;48.670;9.060;2022-12-18T14:56:31;-2.30;99.90
4002;DHT22;2015;48.670;9.060;2022-12-18T14:59:04;-2.40;99.90
4002;DHT22;2015;48.670;9.060;2022-12-18T15:01:44;-2.40;99.90
4002;DHT22;2015;48.670;9.060;2022-12-18T15:04:32;-2.40;99.90
4002;DHT22;2015;48.670;9.060;2022-12-18T15:07:14;-2.50;99.90
4002;DHT22;2015;48.670;9.060;2022-12-18T15:12:38;-2.70;99.90
4002;DHT22;2015;48.670;9.060;2022-12-18T15:20:53;-2.80;99.90
4002;DHT22;2015;48.670;9.060;2022-12-18T15:26:11;-2.80;99.90
4002;DHT22;2015;48.670;9.060;2022-12-18T15:28:51;-2.80;99.90
4002;DHT22;2015;48.670;9.060;2022-12-18T15:31:32;-2.80;99.90
4002;DHT22;2015;48.670;9.060;2022-12-18T15:34:10;-2.80;99.90
4002;DHT22;2015;48.670;9.060;2022-12-18T15:36:43;-2.80;99.90
4002;DHT22;2015;48.670;9.060;2022-12-18T15:39:16;-2.80;99.90
4002;DHT22;2015;48.670;9.060;2022-12-18T15:41:47;-2.80;99.90
4002;DHT22;2015;48.670;9.060;2022-12-18T15:44:38;-2.90;99.90
4002;DHT22;2015;48.670;9.060;2022-12-18T15:47:11;-2.90;99.90
4002;DHT22;2015;48.670;9.060;2022-12-18T15:49:43;-2.90;99.90
4002;DHT22;2015;48.670;9.060;2022-12-18T15:52:15;-3.00;99.90
4002;DHT22;2015;48.670;9.060;2022-12-18T15:54:57;-2.90;99.90
4002;DHT22;2015;48.670;9.060;2022-12-18T15:57:48;-3.00;99.90
4002;DHT22;2015;48.670;9.060;2022-12-18T16:00:19;-3.10;99.90
4002;DHT22;2015;48.670;9.060;2022-12-18T16:02:51;-3.20;99.90
4002;DHT22;2015;48.670;9.060;2022-12-18T16:05:23;-3.40;99.90
4002;DHT22;2015;48.670;9.060;2022-12-18T16:07:55;-3.50;99.90
4002;DHT22;2015;48.670;9.060;2022-12-18T16:10:27;-3.60;99.90
4002;DHT22;2015;48.670;9.060;2022-12-18T16:12:59;-3.80;99.90
4002;DHT22;2015;48.670;9.060;2022-12-18T16:15:30;-3.80;99.90
4002;DHT22;2015;48.670;9.060;2022-12-18T16:18:02;-3.90;99.90
4002;DHT22;2015;48.670;9.060;2022-12-18T16:20:34;-4.00;99.90
4002;DHT22;2015;48.670;9.060;2022-12-18T16:23:06;-4.00;99.90
4002;DHT22;2015;48.670;9.060;2022-12-18T16:25:38;-4.00;99.90
4002;DHT22;2015;48.670;9.060;2022-12-18T16:28:10;-4.00;99.90
4002;DHT22;2015;48.670;9.060;2022-12-18T16:30:41;-4.00;99.90
4002;DHT22;2015;48.670;9.060;2022-12-18T16:33:13;-4.00;99.90
4002;DHT22;2015;48.670;9.060;2022-12-18T16:35:52;-4.00;99.90
4002;DHT22;2015;48.670;9.060;2022-12-18T16:38:24;-4.00;99.90
4002;DHT22;2015;48.670;9.060;2022-12-18T16:40:56;-4.00;99.90
4002;DHT22;2015;48.670;9.060;2022-12-18T16:43:46;-3.90;99.90
4002;DHT22;2015;48.670;9.060;2022-12-18T16:46:25;-3.90;99.90
4002;DHT22;2015;48.670;9.060;2022-12-18T16:48:58;-3.90;99.90
4002;DHT22;2015;48.670;9.060;2022-12-18T16:51:33;-3.90;99.90
4002;DHT22;2015;48.670;9.060;2022-12-18T16:54:05;-3.80;99.90
4002;DHT22;2015;48.670;9.060;2022-12-18T16:56:42;-3.80;99.90
4002;DHT22;2015;48.670;9.060;2022-12-18T16:59:15;-3.80;99.90
4002;DHT22;2015;48.670;9.060;2022-12-18T17:01:46;-3.80;99.90
4002;DHT22;2015;48.670;9.060;2022-12-18T17:04:19;-3.80;99.90
4002;DHT22;2015;48.670;9.060;2022-12-18T17:06:50;-3.80;99.90
4002;DHT22;2015;48.670;9.060;2022-12-18T17:09:24;-3.80;99.90
4002;DHT22;2015;48.670;9.060;2022-12-18T17:11:56;-3.70;99.90
4002;DHT22;2015;48.670;9.060;2022-12-18T17:14:28;-3.70;99.90
4002;DHT22;2015;48.670;9.060;2022-12-18T17:17:00;-3.70;99.90
4002;DHT22;2015;48.670;9.060;2022-12-18T17:19:52;-3.60;99.90
4002;DHT22;2015;48.670;9.060;2022-12-18T17:22:23;-3.50;99.90
4002;DHT22;2015;48.670;9.060;2022-12-18T17:24:55;-3.30;99.90
4002;DHT22;2015;48.670;9.060;2022-12-18T17:27:27;-3.10;99.90
4002;DHT22;2015;48.670;9.060;2022-12-18T17:29:59;-3.00;99.90
4002;DHT22;2015;48.670;9.060;2022-12-18T17:32:31;-2.90;99.90
4002;DHT22;2015;48.670;9.060;2022-12-18T17:35:03;-2.80;99.90
4002;DHT22;2015;48.670;9.060;2022-12-18T17:37:38;-2.80;99.90
4002;DHT22;2015;48.670;9.060;2022-12-18T17:40:10;-2.80;99.90
4002;DHT22;2015;48.670;9.060;2022-12-18T17:42:41;-2.80;99.90
4002;DHT22;2015;48.670;9.060;2022-12-18T17:45:13;-2.80;99.90
4002;DHT22;2015;48.670;9.060;2022-12-18T17:47:45;-2.90;99.90
4002;DHT22;2015;48.670;9.060;2022-12-18T17:50:17;-2.90;99.90
4002;DHT22;2015;48.670;9.060;2022-12-18T17:52:48;-2.80;99.90
4002;DHT22;2015;48.670;9.060;2022-12-18T17:55:20;-2.80;99.90
4002;DHT22;2015;48.670;9.060;2022-12-18T17:57:52;-2.80;99.90
4002;DHT22;2015;48.670;9.060;2022-12-18T18:00:24;-2.80;99.90
4002;DHT22;2015;48.670;9.060;2022-12-18T18:02:56;-2.80;99.90
4002;DHT22;2015;48.670;9.060;2022-12-18T18:05:28;-2.80;99.90
4002;DHT22;2015;48.670;9.060;2022-12-18T18:07:59;-2.80;99.90
4002;DHT22;2015;48.670;9.060;2022-12-18T18:10:34;-2.80;99.90
4002;DHT22;2015;48.670;9.060;2022-12-18T18:13:22;-2.80;99.90
4002;DHT22;2015;48.670;9.060;2022-12-18T18:16:17;-2.80;99.90
4002;DHT22;2015;48.670;9.060;2022-12-18T18:18:49;-2.70;99.90
4002;DHT22;2015;48.670;9.060;2022-12-18T18:21:21;-2.80;99.90
4002;DHT22;2015;48.670;9.060;2022-12-18T18:23:53;-2.70;99.90
4002;DHT22;2015;48.670;9.060;2022-12-18T18:26:25;-2.80;99.90
4002;DHT22;2015;48.670;9.060;2022-12-18T18:29:01;-2.80;99.90
4002;DHT22;2015;48.670;9.060;2022-12-18T18:31:35;-2.90;99.90
4002;DHT22;2015;48.670;9.060;2022-12-18T18:34:17;-2.90;99.90